sensor_id;sensor_type;location;lat;lon;timestamp;P1;durP1;ratioP1;P2;durP2;ratioP2
58950;SDS011;44730;53.158;6.398;2023-02-26T00:00:03;2.33;;;1.00;;
58950;SDS011;44730;53.158;6.398;2023-02-26T00:02:39;2.65;;;0.80;;
58950;SDS011;44730;53.158;6.398;2023-02-26T00:05:12;3.25;;;0.90;;
58950;SDS011;44730;53.158;6.398;2023-02-26T00:07:39;1.00;;;0.70;;
58950;SDS011;44730;53.158;6.398;2023-02-26T00:10:05;2.63;;;0.98;;
58950;SDS011;44730;53.158;6.398;2023-02-26T00:12:33;1.75;;;0.93;;
58950;SDS011;44730;53.158;6.398;2023-02-26T00:14:59;1.73;;;0.93;;
58950;SDS011;44730;53.158;6.398;2023-02-26T00:20:36;2.17;;;0.82;;
58950;SDS011;44730;53.158;6.398;2023-02-26T00:23:02;2.33;;;0.98;;
58950;SDS011;44730;53.158;6.398;2023-02-26T00:25:28;2.15;;;0.93;;
58950;SDS011;44730;53.158;6.398;2023-02-26T00:27:53;3.00;;;1.33;;
58950;SDS011;44730;53.158;6.398;2023-02-26T00:30:20;2.90;;;0.93;;
58950;SDS011;44730;53.158;6.398;2023-02-26T00:32:46;2.88;;;0.73;;
58950;SDS011;44730;53.158;6.398;2023-02-26T00:35:13;1.75;;;1.15;;
58950;SDS011;44730;53.158;6.398;2023-02-26T00:43:04;1.73;;;1.00;;
58950;SDS011;44730;53.158;6.398;2023-02-26T00:45:31;1.95;;;1.00;;
58950;SDS011;44730;53.158;6.398;2023-02-26T00:50:41;3.95;;;1.63;;
58950;SDS011;44730;53.158;6.398;2023-02-26T00:55:51;3.40;;;0.75;;
58950;SDS011;44730;53.158;6.398;2023-02-26T00:58:16;1.35;;;0.85;;
58950;SDS011;44730;53.158;6.398;2023-02-26T01:00:42;1.73;;;0.90;;
58950;SDS011;44730;53.158;6.398;2023-02-26T01:03:08;4.10;;;1.98;;
58950;SDS011;44730;53.158;6.398;2023-02-26T01:05:35;1.73;;;1.35;;
58950;SDS011;44730;53.158;6.398;2023-02-26T01:08:07;4.13;;;0.93;;
58950;SDS011;44730;53.158;6.398;2023-02-26T01:10:35;3.55;;;0.80;;
58950;SDS011;44730;53.158;6.398;2023-02-26T01:13:01;2.20;;;0.90;;
58950;SDS011;44730;53.158;6.398;2023-02-26T01:15:28;1.27;;;0.88;;
58950;SDS011;44730;53.158;6.398;2023-02-26T01:20:33;2.67;;;0.80;;
58950;SDS011;44730;53.158;6.398;2023-02-26T01:23:06;2.05;;;0.82;;
58950;SDS011;44730;53.158;6.398;2023-02-26T01:25:58;2.63;;;0.90;;
58950;SDS011;44730;53.158;6.398;2023-02-26T01:28:23;1.85;;;1.00;;
58950;SDS011;44730;53.158;6.398;2023-02-26T01:30:51;1.60;;;0.95;;
58950;SDS011;44730;53.158;6.398;2023-02-26T01:36:07;3.10;;;1.10;;
58950;SDS011;44730;53.158;6.398;2023-02-26T01:38:56;1.20;;;0.90;;
58950;SDS011;44730;53.158;6.398;2023-02-26T01:49:17;1.13;;;0.80;;
58950;SDS011;44730;53.158;6.398;2023-02-26T01:51:54;3.10;;;1.42;;
58950;SDS011;44730;53.158;6.398;2023-02-26T01:54:22;1.05;;;0.70;;
58950;SDS011;44730;53.158;6.398;2023-02-26T01:59:33;2.15;;;1.08;;
58950;SDS011;44730;53.158;6.398;2023-02-26T02:02:01;1.20;;;1.10;;
58950;SDS011;44730;53.158;6.398;2023-02-26T02:04:30;0.98;;;0.88;;
58950;SDS011;44730;53.158;6.398;2023-02-26T02:06:57;3.17;;;1.10;;
58950;SDS011;44730;53.158;6.398;2023-02-26T02:09:24;3.90;;;1.05;;
58950;SDS011;44730;53.158;6.398;2023-02-26T02:11:58;5.32;;;1.50;;
58950;SDS011;44730;53.158;6.398;2023-02-26T02:14:30;2.78;;;1.33;;
58950;SDS011;44730;53.158;6.398;2023-02-26T02:17:18;1.35;;;1.00;;
58950;SDS011;44730;53.158;6.398;2023-02-26T02:28:14;3.55;;;0.98;;
58950;SDS011;44730;53.158;6.398;2023-02-26T02:31:10;1.75;;;1.10;;
58950;SDS011;44730;53.158;6.398;2023-02-26T02:34:25;6.07;;;1.30;;
58950;SDS011;44730;53.158;6.398;2023-02-26T02:36:34;2.25;;;1.27;;
58950;SDS011;44730;53.158;6.398;2023-02-26T02:39:23;4.95;;;1.10;;
58950;SDS011;44730;53.158;6.398;2023-02-26T02:44:32;8.13;;;1.10;;
58950;SDS011;44730;53.158;6.398;2023-02-26T02:47:03;3.85;;;1.27;;
58950;SDS011;44730;53.158;6.398;2023-02-26T02:49:36;1.55;;;0.70;;
58950;SDS011;44730;53.158;6.398;2023-02-26T02:52:09;4.35;;;1.20;;
58950;SDS011;44730;53.158;6.398;2023-02-26T02:55:28;4.30;;;1.08;;
58950;SDS011;44730;53.158;6.398;2023-02-26T03:00:25;1.65;;;0.82;;
58950;SDS011;44730;53.158;6.398;2023-02-26T03:02:54;2.25;;;1.08;;
58950;SDS011;44730;53.158;6.398;2023-02-26T03:05:31;2.58;;;0.98;;
58950;SDS011;44730;53.158;6.398;2023-02-26T03:08:07;4.20;;;1.25;;
58950;SDS011;44730;53.158;6.398;2023-02-26T03:10:36;2.08;;;0.90;;
58950;SDS011;44730;53.158;6.398;2023-02-26T03:13:03;5.65;;;1.10;;
58950;SDS011;44730;53.158;6.398;2023-02-26T03:15:37;2.58;;;1.13;;
58950;SDS011;44730;53.158;6.398;2023-02-26T03:18:16;3.78;;;1.00;;
58950;SDS011;44730;53.158;6.398;2023-02-26T03:20:53;2.22;;;1.20;;
58950;SDS011;44730;53.158;6.398;2023-02-26T03:23:31;5.22;;;1.13;;
58950;SDS011;44730;53.158;6.398;2023-02-26T03:26:11;2.00;;;1.10;;
58950;SDS011;44730;53.158;6.398;2023-02-26T03:34:16;3.83;;;1.20;;
58950;SDS011;44730;53.158;6.398;2023-02-26T03:36:52;5.82;;;1.17;;
58950;SDS011;44730;53.158;6.398;2023-02-26T03:39:26;1.83;;;0.98;;
58950;SDS011;44730;53.158;6.398;2023-02-26T03:42:07;5.00;;;1.33;;
58950;SDS011;44730;53.158;6.398;2023-02-26T03:44:41;11.50;;;2.05;;
58950;SDS011;44730;53.158;6.398;2023-02-26T03:47:14;2.20;;;0.93;;
58950;SDS011;44730;53.158;6.398;2023-02-26T03:49:43;1.52;;;0.90;;
58950;SDS011;44730;53.158;6.398;2023-02-26T03:52:12;1.95;;;1.00;;
58950;SDS011;44730;53.158;6.398;2023-02-26T03:54:49;5.93;;;1.27;;
58950;SDS011;44730;53.158;6.398;2023-02-26T03:57:19;4.20;;;1.00;;
58950;SDS011;44730;53.158;6.398;2023-02-26T03:59:45;3.15;;;0.98;;
58950;SDS011;44730;53.158;6.398;2023-02-26T04:02:46;3.03;;;1.10;;
58950;SDS011;44730;53.158;6.398;2023-02-26T04:05:10;2.65;;;1.30;;
58950;SDS011;44730;53.158;6.398;2023-02-26T04:07:40;1.65;;;1.30;;
58950;SDS011;44730;53.158;6.398;2023-02-26T04:10:06;4.57;;;1.25;;
58950;SDS011;44730;53.158;6.398;2023-02-26T04:12:34;3.85;;;1.30;;
58950;SDS011;44730;53.158;6.398;2023-02-26T04:14:59;4.18;;;1.10;;
58950;SDS011;44730;53.158;6.398;2023-02-26T04:17:26;1.00;;;0.55;;
58950;SDS011;44730;53.158;6.398;2023-02-26T04:19:52;3.00;;;1.00;;
58950;SDS011;44730;53.158;6.398;2023-02-26T04:22:17;3.67;;;1.20;;
58950;SDS011;44730;53.158;6.398;2023-02-26T04:24:43;2.70;;;0.85;;
58950;SDS011;44730;53.158;6.398;2023-02-26T04:27:09;1.98;;;1.10;;
58950;SDS011;44730;53.158;6.398;2023-02-26T04:29:35;2.25;;;0.85;;
58950;SDS011;44730;53.158;6.398;2023-02-26T04:32:01;4.05;;;0.90;;
58950;SDS011;44730;53.158;6.398;2023-02-26T04:34:27;2.60;;;1.13;;
58950;SDS011;44730;53.158;6.398;2023-02-26T04:36:53;1.00;;;0.73;;
58950;SDS011;44730;53.158;6.398;2023-02-26T04:39:19;2.50;;;0.77;;
58950;SDS011;44730;53.158;6.398;2023-02-26T04:41:45;4.88;;;1.23;;
58950;SDS011;44730;53.158;6.398;2023-02-26T04:44:10;2.85;;;1.20;;
58950;SDS011;44730;53.158;6.398;2023-02-26T04:46:36;7.15;;;1.38;;
58950;SDS011;44730;53.158;6.398;2023-02-26T04:49:02;3.22;;;0.90;;
58950;SDS011;44730;53.158;6.398;2023-02-26T04:51:28;2.85;;;1.10;;
58950;SDS011;44730;53.158;6.398;2023-02-26T04:53:54;3.00;;;0.93;;
58950;SDS011;44730;53.158;6.398;2023-02-26T04:56:20;2.55;;;1.17;;
58950;SDS011;44730;53.158;6.398;2023-02-26T04:58:46;3.63;;;0.95;;
58950;SDS011;44730;53.158;6.398;2023-02-26T05:01:12;2.97;;;1.00;;
58950;SDS011;44730;53.158;6.398;2023-02-26T05:03:38;2.30;;;0.93;;
58950;SDS011;44730;53.158;6.398;2023-02-26T05:06:04;2.60;;;0.90;;
58950;SDS011;44730;53.158;6.398;2023-02-26T05:08:30;2.88;;;1.05;;
58950;SDS011;44730;53.158;6.398;2023-02-26T05:10:55;1.58;;;0.82;;
58950;SDS011;44730;53.158;6.398;2023-02-26T05:13:21;2.63;;;1.33;;
58950;SDS011;44730;53.158;6.398;2023-02-26T05:15:47;2.92;;;0.93;;
58950;SDS011;44730;53.158;6.398;2023-02-26T05:18:13;3.60;;;1.00;;
58950;SDS011;44730;53.158;6.398;2023-02-26T05:20:38;2.95;;;1.17;;
58950;SDS011;44730;53.158;6.398;2023-02-26T05:23:05;2.28;;;0.70;;
58950;SDS011;44730;53.158;6.398;2023-02-26T05:25:31;2.90;;;1.08;;
58950;SDS011;44730;53.158;6.398;2023-02-26T05:27:56;4.55;;;1.73;;
58950;SDS011;44730;53.158;6.398;2023-02-26T05:30:22;1.80;;;1.00;;
58950;SDS011;44730;53.158;6.398;2023-02-26T05:32:48;2.25;;;0.90;;
58950;SDS011;44730;53.158;6.398;2023-02-26T05:35:14;2.22;;;0.80;;
58950;SDS011;44730;53.158;6.398;2023-02-26T05:37:40;3.45;;;1.42;;
58950;SDS011;44730;53.158;6.398;2023-02-26T05:40:06;2.05;;;0.93;;
58950;SDS011;44730;53.158;6.398;2023-02-26T05:42:36;2.05;;;0.82;;
58950;SDS011;44730;53.158;6.398;2023-02-26T05:45:04;2.10;;;0.90;;
58950;SDS011;44730;53.158;6.398;2023-02-26T05:47:31;1.33;;;0.88;;
58950;SDS011;44730;53.158;6.398;2023-02-26T05:49:58;2.35;;;1.00;;
58950;SDS011;44730;53.158;6.398;2023-02-26T05:52:23;4.30;;;0.90;;
58950;SDS011;44730;53.158;6.398;2023-02-26T05:54:49;2.88;;;1.00;;
58950;SDS011;44730;53.158;6.398;2023-02-26T05:57:15;2.78;;;1.10;;
58950;SDS011;44730;53.158;6.398;2023-02-26T05:59:41;1.85;;;0.93;;
58950;SDS011;44730;53.158;6.398;2023-02-26T06:02:07;1.63;;;0.90;;
58950;SDS011;44730;53.158;6.398;2023-02-26T06:04:33;4.15;;;1.02;;
58950;SDS011;44730;53.158;6.398;2023-02-26T06:06:59;2.58;;;1.00;;
58950;SDS011;44730;53.158;6.398;2023-02-26T06:09:26;1.70;;;0.65;;
58950;SDS011;44730;53.158;6.398;2023-02-26T06:11:52;2.38;;;1.60;;
58950;SDS011;44730;53.158;6.398;2023-02-26T06:14:18;2.92;;;0.80;;
58950;SDS011;44730;53.158;6.398;2023-02-26T06:16:44;3.65;;;1.67;;
58950;SDS011;44730;53.158;6.398;2023-02-26T06:19:11;1.73;;;0.80;;
58950;SDS011;44730;53.158;6.398;2023-02-26T06:21:37;2.47;;;1.33;;
58950;SDS011;44730;53.158;6.398;2023-02-26T06:24:03;3.17;;;0.80;;
58950;SDS011;44730;53.158;6.398;2023-02-26T06:26:28;2.03;;;1.00;;
58950;SDS011;44730;53.158;6.398;2023-02-26T06:28:55;2.45;;;1.10;;
58950;SDS011;44730;53.158;6.398;2023-02-26T06:31:21;1.58;;;0.90;;
58950;SDS011;44730;53.158;6.398;2023-02-26T06:33:47;2.92;;;1.15;;
58950;SDS011;44730;53.158;6.398;2023-02-26T06:36:13;2.50;;;0.98;;
58950;SDS011;44730;53.158;6.398;2023-02-26T06:38:38;2.83;;;0.95;;
58950;SDS011;44730;53.158;6.398;2023-02-26T06:41:04;1.88;;;0.90;;
58950;SDS011;44730;53.158;6.398;2023-02-26T06:43:33;2.08;;;0.88;;
58950;SDS011;44730;53.158;6.398;2023-02-26T06:45:58;1.92;;;1.00;;
58950;SDS011;44730;53.158;6.398;2023-02-26T06:48:25;0.73;;;0.60;;
58950;SDS011;44730;53.158;6.398;2023-02-26T06:50:51;1.65;;;0.93;;
58950;SDS011;44730;53.158;6.398;2023-02-26T06:53:17;3.30;;;0.90;;
58950;SDS011;44730;53.158;6.398;2023-02-26T06:55:43;1.50;;;0.77;;
58950;SDS011;44730;53.158;6.398;2023-02-26T06:58:10;2.40;;;1.35;;
58950;SDS011;44730;53.158;6.398;2023-02-26T07:00:37;2.53;;;1.13;;
58950;SDS011;44730;53.158;6.398;2023-02-26T07:03:04;1.65;;;1.00;;
58950;SDS011;44730;53.158;6.398;2023-02-26T07:05:30;5.22;;;1.17;;
58950;SDS011;44730;53.158;6.398;2023-02-26T07:07:56;1.73;;;1.08;;
58950;SDS011;44730;53.158;6.398;2023-02-26T07:10:21;3.03;;;1.02;;
58950;SDS011;44730;53.158;6.398;2023-02-26T07:12:49;2.50;;;1.00;;
58950;SDS011;44730;53.158;6.398;2023-02-26T07:15:15;1.70;;;1.00;;
58950;SDS011;44730;53.158;6.398;2023-02-26T07:17:41;1.80;;;1.00;;
58950;SDS011;44730;53.158;6.398;2023-02-26T07:20:08;4.22;;;0.77;;
58950;SDS011;44730;53.158;6.398;2023-02-26T07:22:35;1.50;;;0.90;;
58950;SDS011;44730;53.158;6.398;2023-02-26T07:25:03;5.38;;;1.10;;
58950;SDS011;44730;53.158;6.398;2023-02-26T07:27:35;3.38;;;1.02;;
58950;SDS011;44730;53.158;6.398;2023-02-26T07:30:01;2.50;;;0.80;;
58950;SDS011;44730;53.158;6.398;2023-02-26T07:32:28;1.88;;;0.93;;
58950;SDS011;44730;53.158;6.398;2023-02-26T07:34:54;1.27;;;1.10;;
58950;SDS011;44730;53.158;6.398;2023-02-26T07:37:20;2.90;;;1.13;;
58950;SDS011;44730;53.158;6.398;2023-02-26T07:39:46;2.65;;;1.08;;
58950;SDS011;44730;53.158;6.398;2023-02-26T07:42:11;4.18;;;0.90;;
58950;SDS011;44730;53.158;6.398;2023-02-26T07:44:37;2.28;;;1.05;;
58950;SDS011;44730;53.158;6.398;2023-02-26T07:47:03;3.95;;;0.98;;
58950;SDS011;44730;53.158;6.398;2023-02-26T07:49:29;2.22;;;1.20;;
58950;SDS011;44730;53.158;6.398;2023-02-26T07:51:56;2.38;;;1.15;;
58950;SDS011;44730;53.158;6.398;2023-02-26T07:54:22;2.90;;;1.23;;
58950;SDS011;44730;53.158;6.398;2023-02-26T07:56:48;1.27;;;0.85;;
58950;SDS011;44730;53.158;6.398;2023-02-26T07:59:14;4.60;;;1.17;;
58950;SDS011;44730;53.158;6.398;2023-02-26T08:01:40;2.47;;;1.13;;
58950;SDS011;44730;53.158;6.398;2023-02-26T08:04:09;5.07;;;1.15;;
58950;SDS011;44730;53.158;6.398;2023-02-26T08:06:36;1.52;;;0.90;;
58950;SDS011;44730;53.158;6.398;2023-02-26T08:09:02;1.50;;;0.90;;
58950;SDS011;44730;53.158;6.398;2023-02-26T08:11:29;2.88;;;0.93;;
58950;SDS011;44730;53.158;6.398;2023-02-26T08:13:58;2.40;;;1.13;;
58950;SDS011;44730;53.158;6.398;2023-02-26T08:16:23;1.58;;;1.20;;
58950;SDS011;44730;53.158;6.398;2023-02-26T08:18:49;1.65;;;0.90;;
58950;SDS011;44730;53.158;6.398;2023-02-26T08:21:15;3.83;;;1.13;;
58950;SDS011;44730;53.158;6.398;2023-02-26T08:23:41;1.80;;;1.10;;
58950;SDS011;44730;53.158;6.398;2023-02-26T08:26:08;2.47;;;1.00;;
58950;SDS011;44730;53.158;6.398;2023-02-26T08:28:34;2.90;;;0.98;;
58950;SDS011;44730;53.158;6.398;2023-02-26T08:31:00;2.88;;;1.23;;
58950;SDS011;44730;53.158;6.398;2023-02-26T08:33:27;3.25;;;1.23;;
58950;SDS011;44730;53.158;6.398;2023-02-26T08:35:53;2.03;;;1.50;;
58950;SDS011;44730;53.158;6.398;2023-02-26T08:38:27;2.30;;;1.02;;
58950;SDS011;44730;53.158;6.398;2023-02-26T08:40:53;3.03;;;0.88;;
58950;SDS011;44730;53.158;6.398;2023-02-26T08:43:21;3.47;;;1.20;;
58950;SDS011;44730;53.158;6.398;2023-02-26T08:45:50;4.88;;;1.20;;
58950;SDS011;44730;53.158;6.398;2023-02-26T08:48:17;1.95;;;1.23;;
58950;SDS011;44730;53.158;6.398;2023-02-26T08:50:42;5.13;;;1.17;;
58950;SDS011;44730;53.158;6.398;2023-02-26T08:53:08;3.80;;;1.23;;
58950;SDS011;44730;53.158;6.398;2023-02-26T08:55:34;1.83;;;1.05;;
58950;SDS011;44730;53.158;6.398;2023-02-26T08:58:00;4.13;;;1.42;;
58950;SDS011;44730;53.158;6.398;2023-02-26T09:00:26;2.03;;;1.13;;
58950;SDS011;44730;53.158;6.398;2023-02-26T09:02:52;3.63;;;1.33;;
58950;SDS011;44730;53.158;6.398;2023-02-26T09:05:17;1.80;;;1.05;;
58950;SDS011;44730;53.158;6.398;2023-02-26T09:07:43;2.20;;;0.90;;
58950;SDS011;44730;53.158;6.398;2023-02-26T09:10:10;1.23;;;0.82;;
58950;SDS011;44730;53.158;6.398;2023-02-26T09:12:37;3.33;;;0.90;;
58950;SDS011;44730;53.158;6.398;2023-02-26T09:15:06;3.30;;;1.15;;
58950;SDS011;44730;53.158;6.398;2023-02-26T09:17:33;1.70;;;0.85;;
58950;SDS011;44730;53.158;6.398;2023-02-26T09:19:59;3.40;;;1.70;;
58950;SDS011;44730;53.158;6.398;2023-02-26T09:22:25;2.38;;;1.10;;
58950;SDS011;44730;53.158;6.398;2023-02-26T09:24:51;2.83;;;0.80;;
58950;SDS011;44730;53.158;6.398;2023-02-26T09:27:17;1.92;;;1.08;;
58950;SDS011;44730;53.158;6.398;2023-02-26T09:29:42;3.55;;;1.17;;
58950;SDS011;44730;53.158;6.398;2023-02-26T09:32:08;2.58;;;1.08;;
58950;SDS011;44730;53.158;6.398;2023-02-26T09:34:35;1.20;;;0.80;;
58950;SDS011;44730;53.158;6.398;2023-02-26T09:37:02;2.67;;;1.23;;
58950;SDS011;44730;53.158;6.398;2023-02-26T09:39:29;1.92;;;0.82;;
58950;SDS011;44730;53.158;6.398;2023-02-26T09:41:56;0.90;;;0.85;;
58950;SDS011;44730;53.158;6.398;2023-02-26T09:44:27;1.25;;;0.75;;
58950;SDS011;44730;53.158;6.398;2023-02-26T09:54:51;2.70;;;0.90;;
58950;SDS011;44730;53.158;6.398;2023-02-26T09:57:30;3.55;;;1.13;;
58950;SDS011;44730;53.158;6.398;2023-02-26T10:00:02;4.63;;;1.15;;
58950;SDS011;44730;53.158;6.398;2023-02-26T10:02:48;4.53;;;1.20;;
58950;SDS011;44730;53.158;6.398;2023-02-26T10:08:44;2.15;;;1.10;;
58950;SDS011;44730;53.158;6.398;2023-02-26T10:13:57;3.05;;;1.35;;
58950;SDS011;44730;53.158;6.398;2023-02-26T10:16:58;4.03;;;1.00;;
58950;SDS011;44730;53.158;6.398;2023-02-26T10:19:32;2.08;;;0.93;;
58950;SDS011;44730;53.158;6.398;2023-02-26T10:22:05;3.53;;;1.02;;
58950;SDS011;44730;53.158;6.398;2023-02-26T10:24:43;1.33;;;0.70;;
58950;SDS011;44730;53.158;6.398;2023-02-26T10:27:20;2.03;;;0.90;;
58950;SDS011;44730;53.158;6.398;2023-02-26T10:30:02;1.27;;;0.82;;
58950;SDS011;44730;53.158;6.398;2023-02-26T10:32:58;1.52;;;0.88;;
58950;SDS011;44730;53.158;6.398;2023-02-26T10:36:16;1.45;;;0.88;;
58950;SDS011;44730;53.158;6.398;2023-02-26T10:38:55;3.33;;;1.00;;
58950;SDS011;44730;53.158;6.398;2023-02-26T10:41:28;1.33;;;0.93;;
58950;SDS011;44730;53.158;6.398;2023-02-26T10:44:40;2.13;;;0.80;;
58950;SDS011;44730;53.158;6.398;2023-02-26T10:47:17;1.70;;;0.98;;
58950;SDS011;44730;53.158;6.398;2023-02-26T10:52:29;1.35;;;0.65;;
58950;SDS011;44730;53.158;6.398;2023-02-26T10:57:45;2.17;;;0.90;;
58950;SDS011;44730;53.158;6.398;2023-02-26T11:00:18;3.08;;;0.95;;
58950;SDS011;44730;53.158;6.398;2023-02-26T11:02:45;2.80;;;1.08;;
58950;SDS011;44730;53.158;6.398;2023-02-26T11:05:20;2.03;;;0.95;;
58950;SDS011;44730;53.158;6.398;2023-02-26T11:07:56;2.97;;;0.82;;
58950;SDS011;44730;53.158;6.398;2023-02-26T11:13:14;3.72;;;1.40;;
58950;SDS011;44730;53.158;6.398;2023-02-26T11:15:40;0.70;;;0.70;;
58950;SDS011;44730;53.158;6.398;2023-02-26T11:18:11;2.72;;;0.90;;
58950;SDS011;44730;53.158;6.398;2023-02-26T11:20:41;1.02;;;0.73;;
58950;SDS011;44730;53.158;6.398;2023-02-26T11:23:15;3.80;;;1.20;;
58950;SDS011;44730;53.158;6.398;2023-02-26T11:25:44;1.15;;;0.90;;
58950;SDS011;44730;53.158;6.398;2023-02-26T11:30:45;5.57;;;1.52;;
58950;SDS011;44730;53.158;6.398;2023-02-26T11:33:17;4.20;;;1.05;;
58950;SDS011;44730;53.158;6.398;2023-02-26T11:35:58;1.77;;;0.98;;
58950;SDS011;44730;53.158;6.398;2023-02-26T11:38:25;1.60;;;0.90;;
58950;SDS011;44730;53.158;6.398;2023-02-26T11:40:53;1.25;;;1.13;;
58950;SDS011;44730;53.158;6.398;2023-02-26T11:43:21;2.75;;;1.17;;
58950;SDS011;44730;53.158;6.398;2023-02-26T11:45:53;2.80;;;1.20;;
58950;SDS011;44730;53.158;6.398;2023-02-26T11:48:23;3.78;;;1.42;;
58950;SDS011;44730;53.158;6.398;2023-02-26T11:50:52;3.78;;;1.15;;
58950;SDS011;44730;53.158;6.398;2023-02-26T11:53:28;6.03;;;1.20;;
58950;SDS011;44730;53.158;6.398;2023-02-26T11:56:12;3.10;;;1.10;;
58950;SDS011;44730;53.158;6.398;2023-02-26T11:58:40;7.53;;;1.58;;
58950;SDS011;44730;53.158;6.398;2023-02-26T12:01:09;3.20;;;1.48;;
58950;SDS011;44730;53.158;6.398;2023-02-26T12:03:39;2.65;;;1.25;;
58950;SDS011;44730;53.158;6.398;2023-02-26T12:06:20;2.40;;;1.10;;
58950;SDS011;44730;53.158;6.398;2023-02-26T12:08:49;3.33;;;1.35;;
58950;SDS011;44730;53.158;6.398;2023-02-26T12:11:22;5.00;;;1.65;;
58950;SDS011;44730;53.158;6.398;2023-02-26T12:22:00;1.15;;;1.05;;
58950;SDS011;44730;53.158;6.398;2023-02-26T12:32:35;3.88;;;1.40;;
58950;SDS011;44730;53.158;6.398;2023-02-26T12:38:25;3.13;;;1.27;;
58950;SDS011;44730;53.158;6.398;2023-02-26T12:49:48;2.78;;;1.42;;
58950;SDS011;44730;53.158;6.398;2023-02-26T13:06:27;2.92;;;1.38;;
58950;SDS011;44730;53.158;6.398;2023-02-26T13:18:46;5.15;;;1.50;;
58950;SDS011;44730;53.158;6.398;2023-02-26T13:21:35;2.38;;;1.48;;
58950;SDS011;44730;53.158;6.398;2023-02-26T13:24:17;3.42;;;1.60;;
58950;SDS011;44730;53.158;6.398;2023-02-26T13:26:51;4.47;;;1.70;;
58950;SDS011;44730;53.158;6.398;2023-02-26T13:32:25;2.45;;;1.45;;
58950;SDS011;44730;53.158;6.398;2023-02-26T13:34:59;4.25;;;1.55;;
58950;SDS011;44730;53.158;6.398;2023-02-26T13:37:53;3.83;;;1.70;;
58950;SDS011;44730;53.158;6.398;2023-02-26T13:56:04;3.50;;;1.40;;
58950;SDS011;44730;53.158;6.398;2023-02-26T13:58:51;2.72;;;1.67;;
58950;SDS011;44730;53.158;6.398;2023-02-26T14:04:24;3.40;;;1.43;;
58950;SDS011;44730;53.158;6.398;2023-02-26T14:10:42;3.70;;;1.65;;
58950;SDS011;44730;53.158;6.398;2023-02-26T14:16:56;4.05;;;1.42;;
58950;SDS011;44730;53.158;6.398;2023-02-26T14:20:30;2.33;;;1.17;;
58950;SDS011;44730;53.158;6.398;2023-02-26T14:22:47;3.53;;;1.45;;
58950;SDS011;44730;53.158;6.398;2023-02-26T14:31:20;3.05;;;1.25;;
58950;SDS011;44730;53.158;6.398;2023-02-26T14:34:14;2.60;;;1.15;;
58950;SDS011;44730;53.158;6.398;2023-02-26T14:37:07;3.40;;;1.30;;
58950;SDS011;44730;53.158;6.398;2023-02-26T14:39:55;3.35;;;1.42;;
58950;SDS011;44730;53.158;6.398;2023-02-26T14:45:36;3.00;;;1.10;;
58950;SDS011;44730;53.158;6.398;2023-02-26T14:48:16;5.15;;;1.38;;
58950;SDS011;44730;53.158;6.398;2023-02-26T14:54:18;3.00;;;1.48;;
58950;SDS011;44730;53.158;6.398;2023-02-26T15:00:54;1.95;;;1.15;;
58950;SDS011;44730;53.158;6.398;2023-02-26T15:16:48;5.28;;;2.45;;
58950;SDS011;44730;53.158;6.398;2023-02-26T15:25:53;4.20;;;1.80;;
58950;SDS011;44730;53.158;6.398;2023-02-26T15:28:39;4.93;;;1.70;;
58950;SDS011;44730;53.158;6.398;2023-02-26T15:31:08;5.30;;;1.40;;
58950;SDS011;44730;53.158;6.398;2023-02-26T15:33:39;3.80;;;1.15;;
58950;SDS011;44730;53.158;6.398;2023-02-26T15:41:11;7.53;;;1.25;;
58950;SDS011;44730;53.158;6.398;2023-02-26T15:43:46;1.90;;;1.05;;
58950;SDS011;44730;53.158;6.398;2023-02-26T15:46:22;3.03;;;1.00;;
58950;SDS011;44730;53.158;6.398;2023-02-26T15:52:06;3.92;;;1.38;;
58950;SDS011;44730;53.158;6.398;2023-02-26T15:54:51;2.08;;;1.00;;
58950;SDS011;44730;53.158;6.398;2023-02-26T15:57:42;3.33;;;1.30;;
58950;SDS011;44730;53.158;6.398;2023-02-26T16:03:01;4.28;;;1.50;;
58950;SDS011;44730;53.158;6.398;2023-02-26T16:05:36;2.55;;;1.00;;
58950;SDS011;44730;53.158;6.398;2023-02-26T16:08:02;3.42;;;1.35;;
58950;SDS011;44730;53.158;6.398;2023-02-26T16:10:38;4.78;;;1.50;;
58950;SDS011;44730;53.158;6.398;2023-02-26T16:13:16;2.90;;;1.38;;
58950;SDS011;44730;53.158;6.398;2023-02-26T16:19:12;2.38;;;1.38;;
58950;SDS011;44730;53.158;6.398;2023-02-26T16:21:53;4.85;;;1.80;;
58950;SDS011;44730;53.158;6.398;2023-02-26T16:24:29;3.45;;;1.30;;
58950;SDS011;44730;53.158;6.398;2023-02-26T16:27:13;5.30;;;1.67;;
58950;SDS011;44730;53.158;6.398;2023-02-26T16:30:12;1.35;;;0.90;;
58950;SDS011;44730;53.158;6.398;2023-02-26T16:33:04;4.53;;;1.35;;
58950;SDS011;44730;53.158;6.398;2023-02-26T16:35:56;3.40;;;1.52;;
58950;SDS011;44730;53.158;6.398;2023-02-26T16:38:58;8.50;;;2.90;;
58950;SDS011;44730;53.158;6.398;2023-02-26T16:47:12;2.40;;;1.48;;
58950;SDS011;44730;53.158;6.398;2023-02-26T16:49:49;1.83;;;1.30;;
58950;SDS011;44730;53.158;6.398;2023-02-26T16:52:23;5.68;;;1.45;;
58950;SDS011;44730;53.158;6.398;2023-02-26T16:55:12;3.28;;;1.25;;
58950;SDS011;44730;53.158;6.398;2023-02-26T16:57:47;3.38;;;1.60;;
58950;SDS011;44730;53.158;6.398;2023-02-26T17:00:21;3.42;;;1.17;;
58950;SDS011;44730;53.158;6.398;2023-02-26T17:03:14;3.25;;;1.52;;
58950;SDS011;44730;53.158;6.398;2023-02-26T17:15:10;5.05;;;1.00;;
58950;SDS011;44730;53.158;6.398;2023-02-26T17:18:07;3.75;;;2.08;;
58950;SDS011;44730;53.158;6.398;2023-02-26T17:20:47;5.43;;;2.20;;
58950;SDS011;44730;53.158;6.398;2023-02-26T17:23:29;4.80;;;1.50;;
58950;SDS011;44730;53.158;6.398;2023-02-26T17:25:57;2.60;;;1.50;;
58950;SDS011;44730;53.158;6.398;2023-02-26T17:28:27;7.85;;;1.95;;
58950;SDS011;44730;53.158;6.398;2023-02-26T17:30:55;5.15;;;1.27;;
58950;SDS011;44730;53.158;6.398;2023-02-26T17:33:21;4.25;;;1.90;;
58950;SDS011;44730;53.158;6.398;2023-02-26T17:35:48;3.80;;;1.70;;
58950;SDS011;44730;53.158;6.398;2023-02-26T17:38:14;2.72;;;1.58;;
58950;SDS011;44730;53.158;6.398;2023-02-26T17:40:44;2.92;;;1.40;;
58950;SDS011;44730;53.158;6.398;2023-02-26T17:43:13;6.15;;;1.88;;
58950;SDS011;44730;53.158;6.398;2023-02-26T17:45:39;3.17;;;1.70;;
58950;SDS011;44730;53.158;6.398;2023-02-26T17:48:07;5.20;;;2.10;;
58950;SDS011;44730;53.158;6.398;2023-02-26T17:50:41;4.03;;;1.98;;
58950;SDS011;44730;53.158;6.398;2023-02-26T17:53:21;6.43;;;3.05;;
58950;SDS011;44730;53.158;6.398;2023-02-26T17:55:52;8.32;;;3.97;;
58950;SDS011;44730;53.158;6.398;2023-02-26T17:58:27;8.80;;;3.28;;
58950;SDS011;44730;53.158;6.398;2023-02-26T18:00:55;4.55;;;2.03;;
58950;SDS011;44730;53.158;6.398;2023-02-26T18:03:21;4.68;;;1.83;;
58950;SDS011;44730;53.158;6.398;2023-02-26T18:05:47;6.30;;;3.50;;
58950;SDS011;44730;53.158;6.398;2023-02-26T18:08:22;9.27;;;3.42;;
58950;SDS011;44730;53.158;6.398;2023-02-26T18:10:48;2.90;;;2.33;;
58950;SDS011;44730;53.158;6.398;2023-02-26T18:13:14;4.10;;;2.15;;
58950;SDS011;44730;53.158;6.398;2023-02-26T18:15:40;4.53;;;2.17;;
58950;SDS011;44730;53.158;6.398;2023-02-26T18:18:16;3.85;;;1.60;;
58950;SDS011;44730;53.158;6.398;2023-02-26T18:20:42;2.25;;;1.88;;
58950;SDS011;44730;53.158;6.398;2023-02-26T18:23:10;2.40;;;1.45;;
58950;SDS011;44730;53.158;6.398;2023-02-26T18:25:41;5.43;;;2.13;;
58950;SDS011;44730;53.158;6.398;2023-02-26T18:28:11;3.13;;;1.70;;
58950;SDS011;44730;53.158;6.398;2023-02-26T18:30:40;3.33;;;1.58;;
58950;SDS011;44730;53.158;6.398;2023-02-26T18:33:08;4.32;;;1.90;;
58950;SDS011;44730;53.158;6.398;2023-02-26T18:35:35;2.92;;;1.10;;
58950;SDS011;44730;53.158;6.398;2023-02-26T18:38:01;2.95;;;1.45;;
58950;SDS011;44730;53.158;6.398;2023-02-26T18:40:27;4.10;;;2.15;;
58950;SDS011;44730;53.158;6.398;2023-02-26T18:42:54;3.38;;;2.17;;
58950;SDS011;44730;53.158;6.398;2023-02-26T18:45:21;2.88;;;1.85;;
58950;SDS011;44730;53.158;6.398;2023-02-26T18:47:47;2.60;;;1.95;;
58950;SDS011;44730;53.158;6.398;2023-02-26T18:50:15;4.65;;;1.60;;
58950;SDS011;44730;53.158;6.398;2023-02-26T18:52:42;2.47;;;1.48;;